Time;durP1;ratioP1;P1;durP2;ratioP2;P2;SDS_P1;SDS_P2;PMS_P1;PMS_P2;Temp;Humidity;BMP_temperature;BMP_pressure;BME280_temperature;BME280_humidity;BME280_pressure;Samples;Min_cycle;Max_cycle;Signal;HPM_P1;HPM_P2
2021/08/10 00:01:04;;;;;;;4.43;3.50;;;15.60;99.90;;;;;;5031732;28;20033;-63
2021/08/10 00:03:30;;;;;;;5.18;3.95;;;15.60;99.90;;;;;;5031708;28;20433;-63
2021/08/10 00:05:56;;;;;;;5.22;3.45;;;15.50;99.90;;;;;;5031863;28;20026;-63
2021/08/10 00:08:22;;;;;;;4.82;3.65;;;15.50;99.90;;;;;;5032069;28;20024;-63
2021/08/10 00:10:49;;;;;;;5.70;3.63;;;15.50;99.90;;;;;;5031624;28;20014;-63
2021/08/10 00:13:18;;;;;;;4.95;3.38;;;15.50;99.90;;;;;;5031937;28;20029;-63
2021/08/10 00:15:44;;;;;;;4.40;3.77;;;15.50;99.90;;;;;;5031605;28;20049;-63
2021/08/10 00:18:10;;;;;;;4.70;3.70;;;15.50;99.90;;;;;;5031770;28;20252;-63
2021/08/10 00:20:37;;;;;;;5.15;3.60;;;15.50;99.90;;;;;;5031735;28;20032;-63
2021/08/10 00:23:03;;;;;;;7.07;3.97;;;15.40;99.90;;;;;;5031571;28;20037;-63
2021/08/10 00:25:28;;;;;;;6.32;3.50;;;15.40;99.90;;;;;;5031460;28;20017;-63
2021/08/10 00:27:54;;;;;;;5.97;3.90;;;15.30;99.90;;;;;;5031588;28;20496;-63
2021/08/10 00:30:20;;;;;;;5.15;4.45;;;15.30;99.90;;;;;;5031477;28;20432;-63
2021/08/10 00:32:47;;;;;;;6.00;4.22;;;15.30;99.90;;;;;;5034660;28;20025;-63
2021/08/10 00:35:12;;;;;;;4.97;4.00;;;15.30;99.90;;;;;;5033655;28;20032;-63
2021/08/10 00:37:38;;;;;;;6.00;4.68;;;15.30;99.90;;;;;;5034823;28;20021;-63
2021/08/10 00:40:04;;;;;;;5.63;3.90;;;15.30;99.90;;;;;;5033962;28;20082;-63
2021/08/10 00:42:30;;;;;;;5.80;4.30;;;15.30;99.90;;;;;;5032336;28;20049;-63
2021/08/10 00:44:55;;;;;;;5.45;4.00;;;15.30;99.90;;;;;;5033910;28;20017;-63
2021/08/10 00:47:21;;;;;;;9.15;4.75;;;15.30;99.90;;;;;;5034229;28;20048;-62
2021/08/10 00:49:46;;;;;;;5.18;3.85;;;15.30;99.90;;;;;;5034607;28;20025;-63
2021/08/10 00:52:12;;;;;;;6.45;4.40;;;15.30;99.90;;;;;;5034442;28;20108;-62
2021/08/10 00:54:38;;;;;;;6.07;4.53;;;15.30;99.90;;;;;;5034429;28;20642;-62
2021/08/10 00:57:03;;;;;;;8.55;4.90;;;15.30;99.90;;;;;;5034453;28;20532;-63
2021/08/10 00:59:29;;;;;;;5.25;4.72;;;15.30;99.90;;;;;;5034313;28;20025;-63
2021/08/10 01:01:55;;;;;;;6.90;4.40;;;15.20;99.90;;;;;;5034590;28;20156;-62
2021/08/10 01:04:20;;;;;;;6.38;5.05;;;15.30;99.90;;;;;;5034057;28;20033;-62
2021/08/10 01:07:08;;;;;;;10.82;5.75;;;15.20;99.90;;;;;;5033039;28;20017;-62
2021/08/10 01:09:52;;;;;;;6.32;5.13;;;15.20;99.90;;;;;;5032260;28;20104;-63
2021/08/10 01:12:28;;;;;;;7.63;5.40;;;15.20;99.90;;;;;;5034074;28;20025;-63
2021/08/10 01:15:18;;;;;;;6.68;5.18;;;15.20;99.90;;;;;;5032191;28;20021;-63
2021/08/10 01:17:58;;;;;;;7.75;5.05;;;15.20;99.90;;;;;;5033678;28;20040;-63
2021/08/10 01:20:37;;;;;;;6.28;5.40;;;15.20;99.90;;;;;;5034166;28;20544;-63
2021/08/10 01:23:06;;;;;;;6.80;5.25;;;15.20;99.90;;;;;;5033333;28;20036;-62
2021/08/10 01:25:50;;;;;;;9.65;5.53;;;15.20;99.90;;;;;;5034094;28;20025;-62
2021/08/10 01:28:46;;;;;;;10.73;6.93;;;15.30;99.90;;;;;;5031634;28;20041;-62
2021/08/10 01:31:18;;;;;;;6.95;5.50;;;15.20;99.90;;;;;;5033811;28;20031;-63
2021/08/10 01:33:46;;;;;;;6.82;4.88;;;15.20;99.90;;;;;;5033949;28;20022;-63
2021/08/10 01:36:15;;;;;;;6.95;4.80;;;15.20;99.90;;;;;;5031205;28;20025;-63
2021/08/10 01:38:44;;;;;;;7.13;4.90;;;15.20;99.90;;;;;;5033462;28;20042;-62
2021/08/10 01:41:12;;;;;;;7.40;5.13;;;15.20;99.90;;;;;;5043758;28;20378;-63
2021/08/10 01:43:40;;;;;;;7.38;5.43;;;15.20;99.90;;;;;;5033397;28;20017;-63
2021/08/10 01:46:05;;;;;;;6.68;5.43;;;15.20;99.90;;;;;;5033419;28;20084;-63
2021/08/10 01:48:32;;;;;;;6.15;5.22;;;15.20;99.90;;;;;;5015651;28;20021;-62
2021/08/10 01:50:59;;;;;;;8.95;5.55;;;15.20;99.90;;;;;;5033407;28;20087;-63
2021/08/10 01:53:25;;;;;;;7.45;5.43;;;15.20;99.90;;;;;;5033284;28;20067;-63
2021/08/10 01:55:56;;;;;;;7.20;5.45;;;15.20;99.90;;;;;;5030917;28;20036;-63
2021/08/10 01:58:22;;;;;;;6.80;4.70;;;15.20;99.90;;;;;;5033360;28;20033;-63
2021/08/10 02:00:50;;;;;;;9.70;5.40;;;15.20;99.90;;;;;;5033081;28;20029;-63
2021/08/10 02:03:17;;;;;;;7.15;5.05;;;15.20;99.90;;;;;;5031723;28;20030;-62
2021/08/10 02:05:43;;;;;;;7.80;5.22;;;15.20;99.90;;;;;;5033285;28;20028;-62
2021/08/10 02:08:11;;;;;;;6.43;5.50;;;15.20;99.90;;;;;;5033127;28;20051;-63
2021/08/10 02:10:38;;;;;;;9.80;5.13;;;15.20;99.90;;;;;;5033012;28;20013;-63
2021/08/10 02:13:06;;;;;;;6.43;5.05;;;15.20;99.90;;;;;;5031719;28;20026;-62
2021/08/10 02:15:32;;;;;;;6.90;4.90;;;15.20;99.90;;;;;;5032843;28;20024;-63
2021/08/10 02:17:58;;;;;;;8.55;5.88;;;15.20;99.90;;;;;;5032913;28;20099;-63
2021/08/10 02:20:23;;;;;;;6.97;4.90;;;15.20;99.90;;;;;;5032905;28;20056;-63
2021/08/10 02:22:50;;;;;;;7.55;4.90;;;15.20;99.90;;;;;;5032742;28;20050;-63
2021/08/10 02:25:21;;;;;;;8.77;5.28;;;15.10;99.90;;;;;;5032464;28;20392;-63
2021/08/10 02:27:55;;;;;;;6.75;4.32;;;15.20;99.90;;;;;;5032606;28;20017;-63
2021/08/10 02:30:26;;;;;;;5.75;4.90;;;15.20;99.90;;;;;;5032684;28;20120;-62
2021/08/10 02:32:52;;;;;;;6.82;4.78;;;15.20;99.90;;;;;;5032514;28;20092;-63
2021/08/10 02:35:24;;;;;;;7.63;5.57;;;15.20;99.90;;;;;;5031334;28;20101;-63
2021/08/10 02:37:52;;;;;;;6.95;4.43;;;15.20;99.90;;;;;;5032769;28;20377;-62
2021/08/10 02:40:20;;;;;;;9.25;4.90;;;15.20;99.90;;;;;;5029949;28;20076;-62
2021/08/10 02:42:52;;;;;;;7.15;5.10;;;15.20;99.90;;;;;;5031389;28;20033;-63
2021/08/10 02:45:18;;;;;;;7.00;4.03;;;15.20;99.90;;;;;;5031429;28;20389;-63
2021/08/10 02:47:51;;;;;;;7.25;5.03;;;15.20;99.90;;;;;;5032468;28;20020;-63
2021/08/10 02:50:18;;;;;;;7.57;4.78;;;15.20;99.90;;;;;;5032256;28;20022;-63
2021/08/10 02:52:43;;;;;;;6.95;4.90;;;15.20;99.90;;;;;;5031177;28;20025;-63
2021/08/10 02:55:10;;;;;;;5.75;4.18;;;15.10;99.90;;;;;;5029940;28;20108;-62
2021/08/10 02:58:06;;;;;;;7.18;4.75;;;15.10;99.90;;;;;;5032103;28;20124;-62
2021/08/10 03:00:40;;;;;;;6.40;5.18;;;15.10;99.90;;;;;;5030076;28;20037;-63
2021/08/10 03:03:13;;;;;;;6.25;4.88;;;15.10;99.90;;;;;;5032001;28;20079;-62
2021/08/10 03:05:41;;;;;;;8.82;5.45;;;15.10;99.90;;;;;;5030672;28;20053;-62
2021/08/10 03:08:09;;;;;;;7.53;5.70;;;15.10;99.90;;;;;;5031693;28;20016;-62
2021/08/10 03:10:37;;;;;;;8.60;5.40;;;15.10;99.90;;;;;;5032009;28;20026;-62
2021/08/10 03:13:06;;;;;;;8.63;4.65;;;15.10;99.90;;;;;;5030821;28;20079;-63
2021/08/10 03:15:35;;;;;;;8.15;5.15;;;15.10;99.90;;;;;;5030531;28;20392;-62
2021/08/10 03:18:05;;;;;;;6.90;4.43;;;15.10;99.90;;;;;;5031896;28;20148;-62
2021/08/10 03:20:32;;;;;;;;;;;15.10;99.90;;;;;;5030857;28;20366;-62
2021/08/10 03:22:58;;;;;;;7.93;4.38;;;15.00;99.90;;;;;;5031541;28;19908;-62
2021/08/10 03:25:26;;;;;;;6.47;4.65;;;15.00;99.90;;;;;;5031955;28;20060;-62
2021/08/10 03:27:53;;;;;;;5.85;3.80;;;15.10;99.90;;;;;;5031644;28;20025;-62
2021/08/10 03:30:19;;;;;;;8.38;4.82;;;15.10;99.90;;;;;;5031779;28;20168;-63
2021/08/10 03:32:49;;;;;;;6.38;4.53;;;15.20;99.90;;;;;;5031755;28;20032;-62
2021/08/10 03:35:14;;;;;;;8.48;4.38;;;15.10;99.90;;;;;;5032051;28;20437;-62
2021/08/10 03:37:41;;;;;;;8.65;5.03;;;15.20;99.90;;;;;;5031189;28;20753;-62
2021/08/10 03:40:07;;;;;;;7.60;4.25;;;15.10;99.90;;;;;;5031160;28;20068;-62
2021/08/10 03:42:37;;;;;;;6.20;3.63;;;15.10;99.90;;;;;;5031559;28;20025;-63
2021/08/10 03:45:04;;;;;;;8.35;3.83;;;15.20;99.90;;;;;;5031622;28;20017;-62
2021/08/10 03:47:30;;;;;;;6.82;4.07;;;15.20;99.90;;;;;;5029951;28;20059;-62
2021/08/10 03:49:56;;;;;;;8.52;4.00;;;15.10;99.90;;;;;;5031249;28;20056;-62
2021/08/10 03:52:22;;;;;;;5.75;3.72;;;15.10;99.90;;;;;;5030088;28;20041;-62
2021/08/10 03:54:47;;;;;;;6.93;3.55;;;15.10;99.90;;;;;;5031482;28;20029;-62
2021/08/10 03:57:15;;;;;;;4.95;3.45;;;15.10;99.90;;;;;;5031522;28;20481;-62
2021/08/10 03:59:42;;;;;;;7.20;4.05;;;15.10;99.90;;;;;;5031500;28;20025;-63
2021/08/10 04:02:09;;;;;;;8.00;4.00;;;15.00;99.90;;;;;;5030964;28;20017;-62
2021/08/10 04:07:41;;;;;;;10.48;4.55;;;15.00;99.90;;;;;;5034104;28;20090;-62
2021/08/10 04:10:07;;;;;;;4.95;3.55;;;15.00;99.90;;;;;;5035031;28;20479;-63
2021/08/10 04:12:33;;;;;;;6.93;3.97;;;15.00;99.90;;;;;;5035478;28;20061;-62
2021/08/10 04:14:59;;;;;;;7.65;3.75;;;15.00;99.90;;;;;;5035289;28;20126;-62
2021/08/10 04:17:27;;;;;;;5.22;3.70;;;15.00;99.90;;;;;;5035239;28;20029;-62
2021/08/10 04:19:53;;;;;;;4.68;2.80;;;15.00;99.90;;;;;;5035129;28;20477;-62
2021/08/10 04:22:20;;;;;;;5.07;3.00;;;15.00;99.90;;;;;;5034898;28;20035;-62
2021/08/10 04:24:46;;;;;;;6.10;3.35;;;15.00;99.90;;;;;;5035262;28;20350;-62
2021/08/10 04:27:13;;;;;;;5.72;3.20;;;15.00;99.90;;;;;;5031056;28;20033;-63
2021/08/10 04:29:39;;;;;;;6.57;3.20;;;15.00;99.90;;;;;;5034971;28;20040;-62
2021/08/10 04:32:06;;;;;;;4.13;2.55;;;15.00;99.90;;;;;;5034945;28;20057;-62
2021/08/10 04:34:32;;;;;;;4.70;2.92;;;15.00;99.90;;;;;;5034758;28;20017;-63
2021/08/10 04:36:57;;;;;;;3.97;2.72;;;15.00;99.90;;;;;;5034697;28;20366;-63
2021/08/10 04:39:26;;;;;;;4.90;2.45;;;15.00;99.90;;;;;;5034548;28;20042;-62
2021/08/10 04:41:55;;;;;;;4.55;2.88;;;15.00;99.90;;;;;;5034471;28;20491;-62
2021/08/10 04:44:21;;;;;;;5.07;2.40;;;15.00;99.90;;;;;;5034646;28;20033;-63
2021/08/10 04:46:47;;;;;;;4.80;2.67;;;15.00;99.90;;;;;;5034657;28;20416;-62
2021/08/10 04:49:13;;;;;;;6.00;2.88;;;15.00;99.90;;;;;;5034402;28;20288;-62
2021/08/10 04:51:38;;;;;;;5.65;2.90;;;15.00;99.90;;;;;;5032915;28;20018;-62
2021/08/10 04:54:04;;;;;;;5.82;3.10;;;15.00;99.90;;;;;;5033548;28;20037;-62
2021/08/10 04:56:30;;;;;;;3.75;2.78;;;15.00;99.90;;;;;;5034332;28;20025;-62
2021/08/10 04:58:55;;;;;;;4.70;2.80;;;15.00;99.90;;;;;;5034486;28;20033;-62
2021/08/10 05:01:21;;;;;;;5.43;2.58;;;15.00;99.90;;;;;;5034455;28;20028;-62
2021/08/10 05:03:46;;;;;;;6.57;2.88;;;15.00;99.90;;;;;;5034232;28;20400;-62
2021/08/10 05:06:12;;;;;;;3.85;2.50;;;15.00;99.90;;;;;;5031299;28;20025;-62
2021/08/10 05:08:37;;;;;;;4.60;2.65;;;15.00;99.90;;;;;;5034145;28;20108;-62
2021/08/10 05:11:07;;;;;;;5.50;3.00;;;15.00;99.90;;;;;;5033043;28;20033;-62
2021/08/10 05:13:33;;;;;;;3.53;2.65;;;15.00;99.90;;;;;;5031993;28;20071;-62
2021/08/10 05:15:58;;;;;;;6.85;2.90;;;15.00;99.90;;;;;;5034178;28;20507;-62
2021/08/10 05:18:24;;;;;;;7.68;3.13;;;15.00;99.90;;;;;;5033824;28;20037;-62
2021/08/10 05:20:49;;;;;;;4.72;3.53;;;15.10;99.90;;;;;;5020455;28;20436;-62
2021/08/10 05:23:15;;;;;;;4.32;2.70;;;15.10;99.90;;;;;;5033370;28;20029;-62
2021/08/10 05:25:40;;;;;;;3.78;2.50;;;15.20;99.90;;;;;;5035050;28;20033;-62
2021/08/10 05:28:06;;;;;;;5.93;3.42;;;15.20;99.90;;;;;;5034881;28;20477;-62
2021/08/10 05:30:31;;;;;;;5.47;2.70;;;15.20;99.90;;;;;;5034909;28;20073;-62
2021/08/10 05:32:57;;;;;;;4.97;2.83;;;15.30;99.90;;;;;;5034841;28;20030;-62
2021/08/10 05:35:22;;;;;;;6.05;3.28;;;15.30;99.90;;;;;;5034718;28;20036;-62
2021/08/10 05:37:48;;;;;;;7.13;3.42;;;15.30;99.90;;;;;;5033587;28;20026;-62
2021/08/10 05:40:13;;;;;;;6.97;3.13;;;15.40;99.90;;;;;;5034236;28;20401;-62
2021/08/10 05:42:39;;;;;;;5.13;3.00;;;15.40;99.90;;;;;;5034267;28;20041;-62
2021/08/10 05:45:05;;;;;;;7.38;3.95;;;15.40;99.90;;;;;;5034084;28;20029;-62
2021/08/10 05:47:47;;;;;;;5.20;3.58;;;15.50;99.90;;;;;;5034294;28;20052;-62
2021/08/10 05:50:13;;;;;;;5.50;3.25;;;15.50;99.90;;;;;;5033860;28;20031;-62
2021/08/10 05:52:38;;;;;;;8.23;4.35;;;15.50;99.90;;;;;;5034369;28;20506;-62
2021/08/10 05:55:04;;;;;;;5.75;3.63;;;15.60;99.90;;;;;;5034502;28;20102;-62
2021/08/10 05:57:40;;;;;;;5.72;3.95;;;15.60;99.90;;;;;;5034374;28;20025;-62
2021/08/10 06:00:11;;;;;;;6.75;4.25;;;15.60;99.90;;;;;;5034290;28;20151;-62
2021/08/10 06:02:37;;;;;;;5.45;3.75;;;15.70;99.90;;;;;;5034212;28;20021;-62
2021/08/10 06:05:04;;;;;;;6.10;4.28;;;15.70;99.90;;;;;;5032924;28;20028;-62
2021/08/10 06:07:29;;;;;;;5.82;4.07;;;15.80;99.90;;;;;;5049467;28;20029;-62
2021/08/10 06:09:55;;;;;;;6.50;3.83;;;15.80;99.90;;;;;;5033421;28;20473;-62
2021/08/10 06:12:20;;;;;;;5.28;4.35;;;15.90;99.90;;;;;;5033567;28;20043;-62
2021/08/10 06:14:46;;;;;;;8.93;5.43;;;15.90;99.90;;;;;;5033547;28;20041;-62
2021/08/10 06:17:11;;;;;;;6.30;4.32;;;16.00;99.90;;;;;;5034059;28;20022;-62
2021/08/10 06:19:37;;;;;;;5.95;4.43;;;16.00;99.90;;;;;;5033883;28;20025;-62
2021/08/10 06:22:42;;;;;;;6.88;4.50;;;16.10;99.90;;;;;;5032649;28;20393;-62
2021/08/10 06:25:08;;;;;;;5.63;4.65;;;16.20;99.90;;;;;;5032108;28;20108;-62
2021/08/10 06:27:44;;;;;;;8.13;4.97;;;16.20;99.90;;;;;;5033687;28;20104;-63
2021/08/10 06:30:11;;;;;;;5.97;4.38;;;16.20;99.90;;;;;;5031191;28;20033;-62
2021/08/10 06:32:36;;;;;;;9.23;5.10;;;16.20;99.90;;;;;;5033044;28;20053;-62
2021/08/10 06:35:02;;;;;;;6.28;4.40;;;16.20;99.90;;;;;;5033454;28;20410;-62
2021/08/10 06:37:28;;;;;;;7.30;4.63;;;16.20;99.90;;;;;;5033473;28;20040;-62
2021/08/10 06:39:53;;;;;;;8.63;4.65;;;16.20;99.90;;;;;;5033506;28;20045;-63
2021/08/10 06:42:20;;;;;;;5.65;4.05;;;16.30;99.90;;;;;;5033452;28;20025;-62
2021/08/10 06:44:46;;;;;;;6.82;4.25;;;16.30;99.90;;;;;;5032901;28;20413;-62
2021/08/10 06:47:12;;;;;;;7.85;4.25;;;16.30;99.90;;;;;;5032118;28;20389;-62
2021/08/10 06:49:38;;;;;;;9.65;4.70;;;16.30;99.90;;;;;;5033075;28;20021;-65
2021/08/10 06:52:08;;;;;;;8.43;4.30;;;16.30;99.90;;;;;;5031523;28;20112;-63
2021/08/10 06:54:34;;;;;;;7.00;4.30;;;16.30;99.90;;;;;;5032233;28;20036;-63
2021/08/10 06:57:04;;;;;;;7.75;4.88;;;16.30;99.90;;;;;;5032108;28;20033;-62
2021/08/10 06:59:40;;;;;;;9.73;4.75;;;16.40;99.90;;;;;;5032438;28;20500;-63
2021/08/10 07:02:09;;;;;;;8.52;4.88;;;16.40;99.90;;;;;;5031208;28;20219;-63
2021/08/10 07:04:58;;;;;;;7.13;4.70;;;16.40;99.90;;;;;;5031405;28;20068;-62
2021/08/10 07:10:26;;;;;;;7.53;4.68;;;16.50;99.90;;;;;;5031959;28;20022;-63
2021/08/10 07:12:51;;;;;;;6.35;4.20;;;16.50;99.90;;;;;;5032704;28;20378;-63
2021/08/10 07:15:17;;;;;;;5.75;4.20;;;16.50;99.90;;;;;;5047046;28;20028;-64
2021/08/10 07:17:43;;;;;;;5.65;4.22;;;16.60;99.90;;;;;;5037057;28;20481;-63
2021/08/10 07:20:09;;;;;;;6.22;4.38;;;16.60;99.90;;;;;;5031382;28;20025;-63
2021/08/10 07:22:48;;;;;;;9.57;4.70;;;16.60;99.90;;;;;;5032562;28;20068;-63
2021/08/10 07:25:13;;;;;;;9.60;4.57;;;16.60;99.90;;;;;;5032902;28;20484;-63
2021/08/10 07:27:39;;;;;;;6.95;3.92;;;16.70;99.90;;;;;;5032726;28;20053;-63
2021/08/10 07:30:05;;;;;;;6.95;4.22;;;16.80;99.90;;;;;;5032738;28;20147;-63
2021/08/10 07:32:31;;;;;;;5.40;3.72;;;16.80;99.90;;;;;;5032327;28;20095;-63
2021/08/10 07:34:56;;;;;;;8.25;4.47;;;16.80;99.90;;;;;;5032212;28;20064;-64
2021/08/10 07:37:22;;;;;;;5.20;4.15;;;16.90;99.90;;;;;;5032224;28;20028;-63
2021/08/10 07:39:47;;;;;;;7.35;4.72;;;16.90;99.90;;;;;;5029675;28;20139;-63
2021/08/10 07:42:43;;;;;;;6.10;3.85;;;17.00;99.90;;;;;;5032143;28;20030;-63
2021/08/10 07:45:10;;;;;;;7.22;3.90;;;17.10;99.90;;;;;;5031187;28;20469;-63
2021/08/10 07:47:54;;;;;;;9.30;4.63;;;17.00;99.90;;;;;;5032578;28;20030;-63
2021/08/10 07:50:38;;;;;;;6.40;4.30;;;17.00;99.90;;;;;;5031500;28;20018;-63
2021/08/10 07:53:04;;;;;;;7.25;4.72;;;17.10;99.90;;;;;;5032260;28;20037;-63
2021/08/10 07:55:29;;;;;;;10.27;4.78;;;17.10;99.90;;;;;;5032250;28;20023;-63
2021/08/10 07:57:55;;;;;;;7.85;4.90;;;17.10;99.90;;;;;;5032523;28;20033;-63
2021/08/10 08:00:21;;;;;;;5.75;3.83;;;17.20;99.90;;;;;;5030544;28;20053;-63
2021/08/10 08:02:47;;;;;;;6.40;3.40;;;17.20;99.90;;;;;;5032044;28;20022;-63
2021/08/10 08:05:23;;;;;;;6.45;4.45;;;17.30;99.90;;;;;;5030512;28;20035;-62
2021/08/10 08:07:48;;;;;;;8.45;4.50;;;17.50;99.80;;;;;;5029431;28;20045;-63
2021/08/10 08:10:14;;;;;;;4.78;3.20;;;17.40;99.60;;;;;;5030176;28;20056;-63
2021/08/10 08:12:39;;;;;;;5.53;3.33;;;17.40;99.60;;;;;;5032439;28;20032;-63
2021/08/10 08:15:06;;;;;;;7.97;3.92;;;17.50;99.50;;;;;;5029470;28;20116;-63
2021/08/10 08:17:32;;;;;;;6.53;3.35;;;17.50;99.20;;;;;;5030646;28;20469;-63
2021/08/10 08:19:57;;;;;;;6.53;3.92;;;17.50;99.20;;;;;;5030092;28;20101;-63
2021/08/10 08:22:23;;;;;;;5.30;4.30;;;17.50;99.30;;;;;;5030554;28;20536;-63
2021/08/10 08:24:49;;;;;;;8.73;4.97;;;17.60;99.10;;;;;;5031377;28;20066;-62
2021/08/10 08:27:14;;;;;;;6.13;4.70;;;17.70;99.00;;;;;;5031535;28;20519;-62
2021/08/10 08:29:40;;;;;;;7.90;5.55;;;17.70;98.70;;;;;;5031428;28;20075;-63
2021/08/10 08:32:09;;;;;;;8.38;5.50;;;17.70;98.60;;;;;;5031754;28;20048;-63
2021/08/10 08:34:35;;;;;;;6.77;5.57;;;17.80;98.50;;;;;;5030482;28;20053;-63
2021/08/10 08:37:00;;;;;;;7.63;4.80;;;17.90;98.60;;;;;;5030777;28;20029;-62
2021/08/10 08:39:26;;;;;;;8.55;5.80;;;18.10;98.60;;;;;;5029121;28;20111;-62
2021/08/10 08:41:53;;;;;;;5.03;4.00;;;18.20;98.30;;;;;;5031363;28;20040;-62
2021/08/10 08:44:19;;;;;;;8.20;4.97;;;18.30;98.20;;;;;;5031987;28;20029;-63
2021/08/10 08:46:46;;;;;;;9.77;5.85;;;18.40;97.80;;;;;;5032149;28;20025;-62
2021/08/10 08:49:15;;;;;;;6.32;4.30;;;18.50;97.80;;;;;;5031895;28;20028;-62
2021/08/10 08:51:44;;;;;;;5.68;4.13;;;18.60;97.60;;;;;;5031597;28;20022;-63
2021/08/10 08:54:10;;;;;;;5.05;3.53;;;18.60;97.50;;;;;;5034255;28;20025;-63
2021/08/10 08:56:36;;;;;;;5.68;3.85;;;18.70;97.10;;;;;;5034136;28;20040;-62
2021/08/10 08:59:03;;;;;;;6.78;4.60;;;18.80;97.10;;;;;;5035475;28;20032;-62
2021/08/10 09:01:29;;;;;;;5.75;3.85;;;18.90;96.80;;;;;;5034197;28;20397;-63
2021/08/10 09:03:54;;;;;;;7.22;3.78;;;19.00;96.70;;;;;;5033428;28;20037;-63
2021/08/10 09:06:22;;;;;;;6.38;3.70;;;19.20;96.30;;;;;;5034634;28;20108;-63
2021/08/10 09:09:05;;;;;;;;;;;;;;;;;;;;;
2021/08/10 09:11:53;;;;;;;5.43;3.58;;;19.20;95.70;;;;;;5034534;28;20023;-63
2021/08/10 09:14:19;;;;;;;4.88;3.45;;;19.20;95.70;;;;;;5033905;28;20041;-63
2021/08/10 09:17:21;;;;;;;5.60;2.80;;;19.30;95.50;;;;;;5034962;28;20140;-63
2021/08/10 09:19:57;;;;;;;6.57;2.50;;;19.40;95.30;;;;;;5012695;28;20037;-63
2021/08/10 09:22:28;;;;;;;4.50;2.13;;;19.50;95.00;;;;;;5031919;28;20037;-63
2021/08/10 09:24:56;;;;;;;4.85;2.60;;;19.60;94.80;;;;;;5034863;28;20029;-63
2021/08/10 09:27:39;;;;;;;3.75;2.55;;;19.70;94.60;;;;;;5034903;28;20053;-63
2021/08/10 09:30:09;;;;;;;4.00;2.75;;;19.70;94.70;;;;;;5034961;28;20094;-63
2021/08/10 09:32:58;;;;;;;5.05;2.40;;;19.80;94.60;;;;;;5034569;28;20096;-63
2021/08/10 09:35:28;;;;;;;4.20;2.25;;;19.80;94.10;;;;;;5034546;28;20028;-63
2021/08/10 09:38:30;;;;;;;4.13;2.22;;;19.80;93.90;;;;;;5021728;28;20025;-63
2021/08/10 09:40:59;;;;;;;6.68;3.33;;;19.90;94.00;;;;;;5033406;28;20484;-63
2021/08/10 09:43:28;;;;;;;3.50;2.55;;;20.00;93.80;;;;;;5034456;28;20473;-63
2021/08/10 09:46:16;;;;;;;6.13;2.47;;;20.20;93.50;;;;;;5034504;28;20068;-63
2021/08/10 09:48:54;;;;;;;3.92;2.40;;;20.40;93.30;;;;;;5033154;28;20013;-63
2021/08/10 09:51:22;;;;;;;6.38;2.70;;;20.40;92.80;;;;;;5034475;28;20037;-63
2021/08/10 09:53:54;;;;;;;4.57;3.00;;;20.40;92.60;;;;;;5034225;28;20555;-63
2021/08/10 09:56:53;;;;;;;4.43;2.50;;;20.30;92.50;;;;;;5034062;28;20113;-63
2021/08/10 09:59:23;;;;;;;5.82;2.95;;;20.30;92.40;;;;;;5034331;28;20397;-63
2021/08/10 10:02:03;;;;;;;3.78;2.28;;;20.20;92.80;;;;;;5034284;28;20029;-63
2021/08/10 10:04:32;;;;;;;5.93;3.28;;;20.20;93.00;;;;;;5034063;28;20033;-63
2021/08/10 10:07:08;;;;;;;4.47;3.25;;;20.20;92.80;;;;;;5034116;28;20021;-63
2021/08/10 10:09:34;;;;;;;6.72;4.07;;;20.30;92.70;;;;;;5033038;28;20028;-63
2021/08/10 10:12:01;;;;;;;7.13;3.92;;;20.30;92.80;;;;;;5032512;28;20112;-63
2021/08/10 10:14:28;;;;;;;5.53;4.03;;;20.40;92.60;;;;;;5034252;28;20370;-63
2021/08/10 10:16:54;;;;;;;7.90;4.40;;;20.50;92.50;;;;;;5034126;28;20377;-63
2021/08/10 10:19:21;;;;;;;5.00;3.15;;;20.50;92.00;;;;;;5033690;28;20083;-63
2021/08/10 10:21:52;;;;;;;5.18;3.33;;;20.60;92.00;;;;;;5033878;28;20052;-63
2021/08/10 10:24:20;;;;;;;4.90;3.47;;;20.80;92.20;;;;;;5033661;28;20076;-63
2021/08/10 10:26:50;;;;;;;4.90;3.90;;;20.90;91.90;;;;;;5033848;28;20037;-63
2021/08/10 10:29:19;;;;;;;3.58;2.80;;;20.90;91.50;;;;;;5033541;28;20020;-63
2021/08/10 10:31:46;;;;;;;6.53;3.10;;;20.90;91.50;;;;;;5033616;28;20030;-63
2021/08/10 10:34:13;;;;;;;3.13;2.40;;;21.00;91.30;;;;;;5033536;28;20030;-63
2021/08/10 10:36:43;;;;;;;5.10;2.92;;;21.10;91.10;;;;;;5033735;28;20021;-63
2021/08/10 10:39:11;;;;;;;6.38;4.15;;;21.30;91.10;;;;;;5033160;28;20045;-63
2021/08/10 10:41:37;;;;;;;4.90;3.50;;;21.30;90.90;;;;;;5033317;28;20025;-63
2021/08/10 10:44:06;;;;;;;5.60;2.65;;;21.30;90.70;;;;;;5033332;28;20104;-63
2021/08/10 10:46:35;;;;;;;4.28;2.65;;;21.30;90.70;;;;;;5033771;28;20125;-63
2021/08/10 10:49:05;;;;;;;5.43;4.03;;;21.40;90.60;;;;;;5033359;28;20076;-63
2021/08/10 10:51:33;;;;;;;5.35;3.00;;;21.40;90.30;;;;;;5033534;28;20264;-63
2021/08/10 10:54:26;;;;;;;3.72;2.35;;;21.60;90.40;;;;;;5031998;28;20385;-63
2021/08/10 10:57:00;;;;;;;4.38;2.30;;;21.80;89.20;;;;;;5031862;28;20031;-63
2021/08/10 10:59:29;;;;;;;3.97;2.33;;;21.80;88.10;;;;;;5033363;28;20064;-63
2021/08/10 11:02:14;;;;;;;;;;;21.70;88.00;;;;;;5033393;28;20083;-63
2021/08/10 11:05:08;;;;;;;2.85;1.80;;;21.60;88.60;;;;;;5033204;28;19909;-63
2021/08/10 11:07:45;;;;;;;3.80;2.13;;;21.60;88.60;;;;;;5033125;28;20028;-63
2021/08/10 11:10:35;;;;;;;8.20;2.80;;;21.60;88.80;;;;;;5033116;28;20100;-63
2021/08/10 11:13:01;;;;;;;4.50;2.47;;;21.70;88.40;;;;;;5032796;28;20021;-63
2021/08/10 11:15:44;;;;;;;3.67;2.40;;;21.80;88.30;;;;;;5032195;28;20025;-63
2021/08/10 11:18:12;;;;;;;3.67;2.05;;;22.00;87.30;;;;;;5033174;28;20063;-63
2021/08/10 11:20:59;;;;;;;3.85;2.08;;;21.90;87.20;;;;;;5033376;28;20041;-63
2021/08/10 11:23:25;;;;;;;3.72;2.35;;;22.00;86.80;;;;;;5033040;28;20542;-63
2021/08/10 11:25:52;;;;;;;2.92;2.28;;;21.90;86.60;;;;;;5032596;28;20025;-63
2021/08/10 11:28:38;;;;;;;3.17;2.20;;;21.90;86.60;;;;;;5032588;28;20072;-63
2021/08/10 11:31:06;;;;;;;3.38;1.70;;;22.00;86.00;;;;;;5032330;28;20477;-63
2021/08/10 11:33:32;;;;;;;4.25;2.30;;;22.00;85.70;;;;;;5032783;28;20033;-63
2021/08/10 11:36:10;;;;;;;5.40;2.63;;;22.10;85.40;;;;;;5031371;28;20108;-63
2021/08/10 11:38:36;;;;;;;3.58;1.98;;;22.30;84.90;;;;;;5032461;28;20094;-63
2021/08/10 11:41:04;;;;;;;4.05;2.08;;;22.40;84.60;;;;;;5031429;28;20032;-63
2021/08/10 11:43:45;;;;;;;4.15;1.98;;;22.50;84.30;;;;;;5031481;28;20026;-63
2021/08/10 11:46:32;;;;;;;3.75;1.58;;;22.50;84.00;;;;;;5031762;28;20540;-63
2021/08/10 11:49:00;;;;;;;7.85;3.47;;;22.80;83.60;;;;;;5030982;28;20116;-63
2021/08/10 11:51:34;;;;;;;4.55;2.78;;;23.00;82.70;;;;;;5031747;28;20105;-63
2021/08/10 11:54:08;;;;;;;3.33;2.30;;;23.00;82.80;;;;;;5024748;28;20053;-63
2021/08/10 11:56:36;;;;;;;3.38;2.10;;;23.10;82.90;;;;;;5032134;28;20489;-63
2021/08/10 11:59:05;;;;;;;3.45;2.05;;;23.10;83.00;;;;;;5031251;28;20670;-63
2021/08/10 12:01:35;;;;;;;3.85;1.90;;;23.00;82.90;;;;;;5030267;28;20152;-63
2021/08/10 12:04:14;;;;;;;2.80;2.10;;;23.00;83.10;;;;;;5029731;28;20030;-63
2021/08/10 12:06:40;;;;;;;4.75;2.88;;;22.80;82.80;;;;;;5030323;28;20494;-63
2021/08/10 12:09:11;;;;;;;3.88;2.85;;;22.70;83.20;;;;;;5030980;28;20546;-63
2021/08/10 12:11:37;;;;;;;4.35;2.60;;;22.60;82.80;;;;;;5030963;28;20060;-63
2021/08/10 12:14:10;;;;;;;3.50;2.65;;;22.40;83.10;;;;;;5030736;28;20047;-63
2021/08/10 12:16:35;;;;;;;3.50;2.40;;;22.40;83.20;;;;;;5030998;28;20021;-63
2021/08/10 12:19:01;;;;;;;6.03;2.55;;;22.30;83.10;;;;;;5029835;28;20136;-63
2021/08/10 12:21:41;;;;;;;4.15;2.83;;;22.30;83.50;;;;;;5030984;28;20051;-63
2021/08/10 12:24:30;;;;;;;2.90;2.53;;;22.30;83.60;;;;;;5031035;28;20029;-63
2021/08/10 12:26:56;;;;;;;3.50;2.10;;;22.30;83.70;;;;;;5032161;28;20528;-63
2021/08/10 12:29:40;;;;;;;3.80;2.10;;;22.30;84.00;;;;;;5035447;28;20500;-63
2021/08/10 12:32:09;;;;;;;5.03;2.60;;;22.50;84.00;;;;;;5032641;28;20044;-63
2021/08/10 12:34:36;;;;;;;4.32;2.58;;;22.60;83.70;;;;;;5035315;28;20022;-63
2021/08/10 12:37:03;;;;;;;4.18;2.28;;;22.90;83.40;;;;;;5035210;28;20025;-63
2021/08/10 12:39:29;;;;;;;4.50;2.38;;;23.10;82.50;;;;;;5033836;28;20049;-63
2021/08/10 12:41:59;;;;;;;2.63;2.20;;;23.10;81.70;;;;;;5034078;28;20022;-63
2021/08/10 12:44:28;;;;;;;4.13;2.13;;;23.10;81.40;;;;;;5034557;28;20532;-63
2021/08/10 12:46:59;;;;;;;4.00;2.33;;;23.00;81.20;;;;;;5033811;28;20386;-63
2021/08/10 12:49:34;;;;;;;3.63;2.35;;;22.90;80.90;;;;;;5033638;28;20156;-63
2021/08/10 12:52:04;;;;;;;5.18;2.53;;;22.80;81.30;;;;;;5045155;28;20018;-63
2021/08/10 12:54:56;;;;;;;4.40;2.50;;;22.80;81.90;;;;;;5033842;28;20029;-63
2021/08/10 12:57:26;;;;;;;3.15;2.15;;;22.70;81.90;;;;;;5034127;28;20045;-63
2021/08/10 12:59:55;;;;;;;2.08;1.60;;;22.70;82.30;;;;;;5034420;28;20021;-63
2021/08/10 13:02:42;;;;;;;4.43;2.42;;;22.60;82.60;;;;;;5031667;28;20026;-63
2021/08/10 13:05:13;;;;;;;4.75;2.85;;;22.60;82.40;;;;;;5034186;28;20079;-63
2021/08/10 13:07:41;;;;;;;3.85;2.30;;;22.50;82.10;;;;;;5034298;28;20010;-63